Time;durP1;ratioP1;P1;durP2;ratioP2;P2;SDS_P1;SDS_P2;PMS_P1;PMS_P2;Temp;Humidity;BMP_temperature;BMP_pressure;BME280_temperature;BME280_humidity;BME280_pressure;Samples;Min_cycle;Max_cycle;Signal;HPM_P1;HPM_P2
2023/09/20 00:01:33;;;;;;;14.82;8.88;;;;;;;;;;5093794;28;20079;-72
2023/09/20 00:04:02;;;;;;;15.98;9.05;;;;;;;;;;5091445;28;20085;-71
2023/09/20 00:06:28;;;;;;;15.05;9.52;;;;;;;;;;5094278;28;20040;-72
2023/09/20 00:08:54;;;;;;;17.88;9.88;;;;;;;;;;5091548;28;20409;-72
2023/09/20 00:11:20;;;;;;;16.98;9.20;;;;;;;;;;5090564;28;20028;-72
2023/09/20 00:13:46;;;;;;;16.25;9.20;;;;;;;;;;5103251;28;20042;-72
2023/09/20 00:16:12;;;;;;;15.88;9.23;;;;;;;;;;5111684;28;20034;-72
2023/09/20 00:18:39;;;;;;;16.55;10.35;;;;;;;;;;5111832;28;20028;-73
2023/09/20 00:21:05;;;;;;;12.18;8.70;;;;;;;;;;5110236;28;20114;-72
2023/09/20 00:23:30;;;;;;;17.20;9.27;;;;;;;;;;5108252;28;20188;-71
2023/09/20 00:25:57;;;;;;;11.02;8.43;;;;;;;;;;5109790;28;20035;-74
2023/09/20 00:28:23;;;;;;;14.80;9.15;;;;;;;;;;5110647;28;20400;-72
2023/09/20 00:30:49;;;;;;;13.73;8.75;;;;;;;;;;5110360;28;20060;-72
2023/09/20 00:33:15;;;;;;;16.67;10.50;;;;;;;;;;5103891;28;20035;-71
2023/09/20 00:35:41;;;;;;;14.82;9.48;;;;;;;;;;5111426;28;20039;-72
2023/09/20 00:38:10;;;;;;;14.82;10.10;;;;;;;;;;5111497;28;20205;-72
2023/09/20 00:40:37;;;;;;;19.02;10.57;;;;;;;;;;5111579;28;20439;-72
2023/09/20 00:43:07;;;;;;;16.23;9.50;;;;;;;;;;5111885;28;20026;-72
2023/09/20 00:45:40;;;;;;;17.70;11.63;;;;;;;;;;5110484;28;20515;-72
2023/09/20 00:48:13;;;;;;;17.60;11.13;;;;;;;;;;5093231;28;20037;-72
2023/09/20 00:50:42;;;;;;;15.98;11.13;;;;;;;;;;5068724;28;20509;-72
2023/09/20 00:53:12;;;;;;;18.17;10.35;;;;;;;;;;5070111;28;20035;-72
2023/09/20 00:55:39;;;;;;;14.50;10.10;;;;;;;;;;5070249;28;20059;-72
2023/09/20 00:58:09;;;;;;;16.13;11.70;;;;;;;;;;5070155;28;20025;-72
2023/09/20 01:00:37;;;;;;;14.82;10.85;;;;;;;;;;5070050;28;20040;-71
2023/09/20 01:03:04;;;;;;;19.60;11.15;;;;;;;;;;5072047;28;20035;-72
2023/09/20 01:05:37;;;;;;;15.07;10.57;;;;;;;;;;5070763;28;20064;-73
2023/09/20 01:08:06;;;;;;;14.82;9.30;;;;;;;;;;5072164;28;20040;-74
2023/09/20 01:10:33;;;;;;;15.50;9.60;;;;;;;;;;5087150;28;20048;-71
2023/09/20 01:13:02;;;;;;;12.85;9.52;;;;;;;;;;5070059;28;20059;-71
2023/09/20 01:15:29;;;;;;;11.82;7.93;;;;;;;;;;5071195;28;20115;-73
2023/09/20 01:17:57;;;;;;;13.60;9.07;;;;;;;;;;5072487;28;20043;-72
2023/09/20 01:20:24;;;;;;;11.60;9.23;;;;;;;;;;5086060;28;20051;-72
2023/09/20 01:22:53;;;;;;;13.40;7.90;;;;;;;;;;5090006;28;20043;-72
2023/09/20 01:25:25;;;;;;;15.73;8.07;;;;;;;;;;5091287;28;20088;-71
2023/09/20 01:27:57;;;;;;;18.73;8.75;;;;;;;;;;5090142;28;20109;-73
2023/09/20 01:30:26;;;;;;;11.82;7.85;;;;;;;;;;5090939;28;20162;-71
2023/09/20 01:32:53;;;;;;;12.35;9.15;;;;;;;;;;5084971;28;20390;-71
2023/09/20 01:35:25;;;;;;;15.93;8.30;;;;;;;;;;5093650;28;20040;-73
2023/09/20 01:37:52;;;;;;;12.57;8.45;;;;;;;;;;5093648;28;20173;-70
2023/09/20 01:40:19;;;;;;;17.63;8.52;;;;;;;;;;5093358;28;20470;-70
2023/09/20 01:42:48;;;;;;;11.50;8.02;;;;;;;;;;5092840;28;20062;-72
2023/09/20 01:45:16;;;;;;;13.20;8.90;;;;;;;;;;5094776;28;20109;-72
2023/09/20 01:47:47;;;;;;;13.70;9.02;;;;;;;;;;5093273;28;20043;-72
2023/09/20 01:50:19;;;;;;;13.32;9.02;;;;;;;;;;5093344;28;20032;-73
2023/09/20 01:52:48;;;;;;;11.63;8.10;;;;;;;;;;5094650;28;20028;-72
2023/09/20 01:55:16;;;;;;;11.18;8.30;;;;;;;;;;5094222;28;20549;-73
2023/09/20 01:57:46;;;;;;;12.45;8.55;;;;;;;;;;5093330;28;20569;-73
2023/09/20 02:00:22;;;;;;;16.38;9.75;;;;;;;;;;5092828;28;20507;-73
2023/09/20 02:02:50;;;;;;;12.65;8.88;;;;;;;;;;5094446;28;20075;-72
2023/09/20 02:05:17;;;;;;;12.27;7.93;;;;;;;;;;5094216;28;20028;-72
2023/09/20 02:07:48;;;;;;;13.13;8.30;;;;;;;;;;5093956;28;20028;-72
2023/09/20 02:10:16;;;;;;;14.57;7.90;;;;;;;;;;5094013;28;20094;-72
2023/09/20 02:12:56;;;;;;;16.05;8.30;;;;;;;;;;5092703;28;20020;-72
2023/09/20 02:15:29;;;;;;;14.88;8.45;;;;;;;;;;5092808;28;20558;-72
2023/09/20 02:17:55;;;;;;;19.55;8.63;;;;;;;;;;5094206;28;20059;-72
2023/09/20 02:20:23;;;;;;;16.25;9.27;;;;;;;;;;5092377;28;20032;-72
2023/09/20 02:22:52;;;;;;;21.33;10.73;;;;;;;;;;5092850;28;20036;-72
2023/09/20 02:25:20;;;;;;;16.10;10.77;;;;;;;;;;5097330;28;20032;-72
2023/09/20 02:27:50;;;;;;;15.85;10.77;;;;;;;;;;5098963;28;20077;-72
2023/09/20 02:30:24;;;;;;;18.92;11.82;;;;;;;;;;5092990;28;20043;-71
2023/09/20 02:32:57;;;;;;;19.85;11.13;;;;;;;;;;5089132;28;20116;-71
2023/09/20 02:35:27;;;;;;;20.42;13.00;;;;;;;;;;5072336;28;20043;-71
2023/09/20 02:37:55;;;;;;;26.50;14.40;;;;;;;;;;5073648;28;20407;-71
2023/09/20 02:40:24;;;;;;;20.45;13.55;;;;;;;;;;5073377;28;20115;-72
2023/09/20 02:42:58;;;;;;;25.88;14.52;;;;;;;;;;5073498;28;20127;-72
2023/09/20 02:45:27;;;;;;;25.70;15.40;;;;;;;;;;5071194;28;20054;-72
2023/09/20 02:47:54;;;;;;;26.60;14.35;;;;;;;;;;5072129;28;20051;-72
2023/09/20 02:50:23;;;;;;;22.33;13.48;;;;;;;;;;5071919;28;20020;-71
2023/09/20 02:52:51;;;;;;;23.77;14.15;;;;;;;;;;5088974;28;20029;-72
2023/09/20 02:55:20;;;;;;;21.90;14.23;;;;;;;;;;5071854;28;20089;-71
2023/09/20 02:57:54;;;;;;;22.92;13.52;;;;;;;;;;5088692;28;20398;-72
2023/09/20 03:00:23;;;;;;;24.35;13.48;;;;;;;;;;5071475;28;20050;-73
2023/09/20 03:02:51;;;;;;;22.30;14.48;;;;;;;;;;5071667;28;20047;-72
2023/09/20 03:05:21;;;;;;;21.10;13.15;;;;;;;;;;5073124;28;20044;-72
2023/09/20 03:07:49;;;;;;;25.17;13.48;;;;;;;;;;5071815;28;20028;-72
2023/09/20 03:10:19;;;;;;;21.95;12.82;;;;;;;;;;5088425;28;20107;-72
2023/09/20 03:12:48;;;;;;;25.33;14.70;;;;;;;;;;5071665;28;20056;-72
2023/09/20 03:15:18;;;;;;;22.60;12.68;;;;;;;;;;5071623;28;20466;-72
2023/09/20 03:17:50;;;;;;;20.52;13.38;;;;;;;;;;5072533;28;20037;-72
2023/09/20 03:20:22;;;;;;;29.80;16.08;;;;;;;;;;5071294;28;20062;-72
2023/09/20 03:23:01;;;;;;;19.77;12.95;;;;;;;;;;5088184;28;20029;-72
2023/09/20 03:25:36;;;;;;;30.27;14.30;;;;;;;;;;5071297;28;20113;-72
2023/09/20 03:28:07;;;;;;;18.58;12.48;;;;;;;;;;5071547;28;20119;-72
2023/09/20 03:30:37;;;;;;;20.30;13.32;;;;;;;;;;5070921;28;20028;-72
2023/09/20 03:33:05;;;;;;;26.27;13.30;;;;;;;;;;5105666;27;20024;-71
2023/09/20 03:35:32;;;;;;;19.45;13.35;;;;;;;;;;5090455;28;20032;-72
2023/09/20 03:37:58;;;;;;;21.15;14.68;;;;;;;;;;5088873;28;20451;-72
2023/09/20 03:40:24;;;;;;;25.75;14.02;;;;;;;;;;5090498;28;20040;-72
2023/09/20 03:42:52;;;;;;;22.05;12.45;;;;;;;;;;5091343;28;20030;-72
2023/09/20 03:45:19;;;;;;;17.55;12.25;;;;;;;;;;5092181;28;20461;-72
2023/09/20 03:47:50;;;;;;;25.58;13.95;;;;;;;;;;5090069;28;20100;-71
2023/09/20 03:50:19;;;;;;;24.48;12.05;;;;;;;;;;5088459;28;20028;-72
2023/09/20 03:52:46;;;;;;;18.10;10.82;;;;;;;;;;5090663;28;20043;-71
2023/09/20 03:55:12;;;;;;;26.27;12.07;;;;;;;;;;5086071;28;20032;-74
2023/09/20 03:57:40;;;;;;;32.22;12.95;;;;;;;;;;5088565;28;20027;-72
2023/09/20 04:00:10;;;;;;;20.20;11.10;;;;;;;;;;5090127;28;20508;-71
2023/09/20 04:02:41;;;;;;;19.25;11.40;;;;;;;;;;5090153;28;20032;-72
2023/09/20 04:05:15;;;;;;;17.20;10.90;;;;;;;;;;5086918;28;20039;-72
2023/09/20 04:07:44;;;;;;;26.40;12.45;;;;;;;;;;5067182;28;20081;-72
2023/09/20 04:10:11;;;;;;;21.85;10.77;;;;;;;;;;5089498;28;20024;-72
2023/09/20 04:12:37;;;;;;;18.80;10.75;;;;;;;;;;5089505;28;20028;-72
2023/09/20 04:15:04;;;;;;;36.22;12.38;;;;;;;;;;5087293;28;20057;-72
2023/09/20 04:17:32;;;;;;;27.13;12.57;;;;;;;;;;5082968;28;20039;-72
2023/09/20 04:20:04;;;;;;;43.05;14.93;;;;;;;;;;5083253;28;20038;-72
2023/09/20 04:22:32;;;;;;;39.88;12.98;;;;;;;;;;5085297;28;20505;-72
2023/09/20 04:25:01;;;;;;;41.28;14.80;;;;;;;;;;5087018;28;20028;-72
2023/09/20 04:27:28;;;;;;;37.03;14.90;;;;;;;;;;5082154;28;20028;-72
2023/09/20 04:29:56;;;;;;;26.95;12.85;;;;;;;;;;5081965;28;20035;-72
2023/09/20 04:32:23;;;;;;;25.88;11.50;;;;;;;;;;5085797;28;20048;-72
2023/09/20 04:34:53;;;;;;;16.25;10.88;;;;;;;;;;5102758;28;20243;-72
2023/09/20 04:37:22;;;;;;;22.80;11.95;;;;;;;;;;5105541;28;20044;-72
2023/09/20 04:39:49;;;;;;;27.20;12.23;;;;;;;;;;5086384;28;20436;-71
2023/09/20 04:42:17;;;;;;;24.95;11.20;;;;;;;;;;5085423;28;20047;-71
2023/09/20 04:44:43;;;;;;;18.67;9.50;;;;;;;;;;5085459;28;20141;-72
2023/09/20 04:47:10;;;;;;;25.90;10.55;;;;;;;;;;5100534;28;20383;-72
2023/09/20 04:49:40;;;;;;;20.73;9.75;;;;;;;;;;5108592;28;20027;-72
2023/09/20 04:52:10;;;;;;;20.80;11.27;;;;;;;;;;5092190;28;20032;-72
2023/09/20 04:54:38;;;;;;;30.58;11.70;;;;;;;;;;5109020;28;20032;-72
2023/09/20 04:57:07;;;;;;;30.65;10.13;;;;;;;;;;5110291;28;20028;-72
2023/09/20 04:59:32;;;;;;;26.73;10.40;;;;;;;;;;5109963;28;20035;-72
2023/09/20 05:02:03;;;;;;;19.55;8.95;;;;;;;;;;5110249;28;20058;-71
2023/09/20 05:04:29;;;;;;;21.88;9.88;;;;;;;;;;5110168;28;20031;-71
2023/09/20 05:06:55;;;;;;;22.27;11.45;;;;;;;;;;5110452;28;20092;-71
2023/09/20 05:09:22;;;;;;;23.48;10.90;;;;;;;;;;5113964;28;20035;-71
2023/09/20 05:11:49;;;;;;;23.45;10.00;;;;;;;;;;5114039;28;20114;-71
2023/09/20 05:14:17;;;;;;;29.00;9.60;;;;;;;;;;5114076;28;20114;-71
2023/09/20 05:16:44;;;;;;;33.45;11.23;;;;;;;;;;5113928;28;20028;-71
2023/09/20 05:19:11;;;;;;;26.30;9.38;;;;;;;;;;5114127;28;20126;-71
2023/09/20 05:21:38;;;;;;;24.02;9.60;;;;;;;;;;5113219;28;20035;-71
2023/09/20 05:24:04;;;;;;;24.08;9.68;;;;;;;;;;5113932;28;20035;-71
2023/09/20 05:26:31;;;;;;;24.45;8.57;;;;;;;;;;5103909;28;20035;-72
2023/09/20 05:28:58;;;;;;;26.75;10.52;;;;;;;;;;5093650;28;20032;-71
2023/09/20 05:31:26;;;;;;;24.40;8.82;;;;;;;;;;5087160;28;20154;-72
2023/09/20 05:33:53;;;;;;;18.90;8.55;;;;;;;;;;5091044;28;20031;-72
2023/09/20 05:36:21;;;;;;;20.98;8.55;;;;;;;;;;5092784;28;20020;-72
2023/09/20 05:38:48;;;;;;;24.38;9.25;;;;;;;;;;5099481;28;20477;-71
2023/09/20 05:41:15;;;;;;;18.35;9.35;;;;;;;;;;5099517;28;20024;-72
2023/09/20 05:43:42;;;;;;;21.48;9.70;;;;;;;;;;5094147;28;20050;-72
2023/09/20 05:46:09;;;;;;;18.65;9.20;;;;;;;;;;5094158;28;20107;-71
2023/09/20 05:48:36;;;;;;;15.63;8.13;;;;;;;;;;5093565;28;20507;-71
2023/09/20 05:51:02;;;;;;;22.38;9.20;;;;;;;;;;5093975;28;20020;-72
2023/09/20 05:53:28;;;;;;;11.50;7.10;;;;;;;;;;5094030;28;20040;-72
2023/09/20 05:55:55;;;;;;;18.98;8.43;;;;;;;;;;5094100;28;20516;-72
2023/09/20 05:58:21;;;;;;;19.27;8.02;;;;;;;;;;5101973;28;20043;-72
2023/09/20 06:00:46;;;;;;;29.85;8.98;;;;;;;;;;5107098;28;20016;-72
2023/09/20 06:03:12;;;;;;;16.38;8.57;;;;;;;;;;5114147;28;20027;-73
2023/09/20 06:05:38;;;;;;;23.17;8.27;;;;;;;;;;5100702;28;20043;-76
2023/09/20 06:08:08;;;;;;;16.92;8.60;;;;;;;;;;5093818;28;20378;-75
2023/09/20 06:10:34;;;;;;;17.63;8.13;;;;;;;;;;5093429;28;20024;-75
2023/09/20 06:13:00;;;;;;;19.85;7.90;;;;;;;;;;5093700;28;20137;-75
2023/09/20 06:15:26;;;;;;;19.42;8.65;;;;;;;;;;5093599;28;20102;-75
2023/09/20 06:17:52;;;;;;;28.52;9.85;;;;;;;;;;5092633;28;20080;-73
2023/09/20 06:20:21;;;;;;;18.33;9.15;;;;;;;;;;5092449;28;20501;-75
2023/09/20 06:22:51;;;;;;;18.98;9.32;;;;;;;;;;5092288;28;20082;-74
2023/09/20 06:25:21;;;;;;;13.45;7.80;;;;;;;;;;5093560;28;20028;-74
2023/09/20 06:27:50;;;;;;;16.63;8.48;;;;;;;;;;5093515;28;20350;-71
2023/09/20 06:30:24;;;;;;;19.58;8.73;;;;;;;;;;5092610;28;20400;-74
2023/09/20 06:32:50;;;;;;;20.77;9.05;;;;;;;;;;5093574;28;20039;-72
2023/09/20 06:35:20;;;;;;;16.75;8.93;;;;;;;;;;5093501;28;20024;-75
2023/09/20 06:37:49;;;;;;;19.75;10.45;;;;;;;;;;5093291;28;20024;-76
2023/09/20 06:40:26;;;;;;;19.60;9.43;;;;;;;;;;5092739;28;20032;-74
2023/09/20 06:42:52;;;;;;;17.00;9.02;;;;;;;;;;5092370;28;20441;-73
2023/09/20 06:45:22;;;;;;;16.05;8.63;;;;;;;;;;5093224;28;20465;-74
2023/09/20 06:47:49;;;;;;;13.18;8.30;;;;;;;;;;5092786;28;20032;-74
2023/09/20 06:50:14;;;;;;;15.48;8.35;;;;;;;;;;5091815;28;20023;-73
2023/09/20 06:52:42;;;;;;;15.02;8.60;;;;;;;;;;5093240;28;20058;-73
2023/09/20 06:55:16;;;;;;;14.45;8.30;;;;;;;;;;5093449;28;20051;-74
2023/09/20 06:57:42;;;;;;;15.10;9.52;;;;;;;;;;5093398;28;20040;-75
2023/09/20 07:00:18;;;;;;;13.32;9.25;;;;;;;;;;5086347;28;20036;-73
2023/09/20 07:02:46;;;;;;;18.00;7.80;;;;;;;;;;5084437;28;20036;-72
2023/09/20 07:05:13;;;;;;;11.00;7.07;;;;;;;;;;5091802;28;20028;-74
2023/09/20 07:07:39;;;;;;;21.58;8.68;;;;;;;;;;5091579;28;20031;-74
2023/09/20 07:10:06;;;;;;;12.57;7.65;;;;;;;;;;5091718;28;20074;-73
2023/09/20 07:12:34;;;;;;;13.10;7.32;;;;;;;;;;5091548;28;20035;-71
2023/09/20 07:15:05;;;;;;;18.88;7.00;;;;;;;;;;5091960;28;20032;-72
2023/09/20 07:17:31;;;;;;;13.02;6.47;;;;;;;;;;5091476;28;20432;-73
2023/09/20 07:19:58;;;;;;;12.07;7.00;;;;;;;;;;5091739;28;20063;-73
2023/09/20 07:22:24;;;;;;;15.98;6.03;;;;;;;;;;5090836;28;20105;-73
2023/09/20 07:24:54;;;;;;;9.52;5.70;;;;;;;;;;5090498;28;20085;-73
2023/09/20 07:27:21;;;;;;;10.25;5.55;;;;;;;;;;5092004;28;20043;-72
2023/09/20 07:29:47;;;;;;;10.57;6.45;;;;;;;;;;5090874;28;20099;-72
2023/09/20 07:32:15;;;;;;;13.77;6.45;;;;;;;;;;5091027;28;20032;-72
2023/09/20 07:34:41;;;;;;;10.80;7.00;;;;;;;;;;5090815;28;20061;-74
2023/09/20 07:37:07;;;;;;;10.38;5.60;;;;;;;;;;5089986;28;20043;-73
2023/09/20 07:39:33;;;;;;;11.70;6.53;;;;;;;;;;5091911;28;20493;-73
2023/09/20 07:41:59;;;;;;;13.35;6.15;;;;;;;;;;5091432;28;20129;-73
2023/09/20 07:44:30;;;;;;;13.77;6.38;;;;;;;;;;5090904;28;20031;-73
2023/09/20 07:47:00;;;;;;;10.90;6.00;;;;;;;;;;5091893;28;20038;-73
2023/09/20 07:49:25;;;;;;;11.27;6.47;;;;;;;;;;5091834;28;20023;-73
2023/09/20 07:51:53;;;;;;;14.80;6.00;;;;;;;;;;5092166;28;20108;-72
2023/09/20 07:54:20;;;;;;;14.05;6.32;;;;;;;;;;5091737;28;20426;-72
2023/09/20 07:56:50;;;;;;;9.10;5.03;;;;;;;;;;5092071;28;20075;-76
2023/09/20 07:59:23;;;;;;;9.82;5.78;;;;;;;;;;5092417;28;20046;-74
2023/09/20 08:01:52;;;;;;;11.57;5.90;;;;;;;;;;5092137;28;20478;-74
2023/09/20 08:04:18;;;;;;;13.18;5.80;;;;;;;;;;5090832;28;20492;-74
2023/09/20 08:06:44;;;;;;;10.48;5.55;;;;;;;;;;5092073;28;20103;-73
2023/09/20 08:09:11;;;;;;;10.70;5.75;;;;;;;;;;5091596;28;20389;-74
2023/09/20 08:11:37;;;;;;;11.27;5.63;;;;;;;;;;5091433;28;20046;-73
2023/09/20 08:14:04;;;;;;;12.20;5.13;;;;;;;;;;5091803;28;20020;-72
2023/09/20 08:16:33;;;;;;;6.82;5.15;;;;;;;;;;5091631;28;20067;-73
2023/09/20 08:21:42;;;;;;;8.00;5.45;;;;;;;;;;5090321;28;20147;-74
2023/09/20 09:00:21;;;;;;;13.45;5.10;;;;;;;;;;5094449;28;20052;-72
2023/09/20 09:03:07;;;;;;;9.38;5.00;;;;;;;;;;5093585;28;20107;-71
2023/09/20 09:05:33;;;;;;;9.48;5.10;;;;;;;;;;5093379;28;20123;-73
2023/09/20 09:08:03;;;;;;;10.02;4.95;;;;;;;;;;5094653;28;20115;-73
2023/09/20 09:10:29;;;;;;;12.38;4.88;;;;;;;;;;5093271;28;20049;-74
2023/09/20 09:12:58;;;;;;;13.35;5.95;;;;;;;;;;5094567;28;20517;-74
2023/09/20 09:15:25;;;;;;;12.10;4.80;;;;;;;;;;5095334;28;20068;-75
2023/09/20 09:17:51;;;;;;;7.00;4.70;;;;;;;;;;5095155;28;20050;-75
2023/09/20 09:20:21;;;;;;;6.70;5.00;;;;;;;;;;5095046;28;20511;-74
2023/09/20 09:22:49;;;;;;;7.10;4.78;;;;;;;;;;5094418;28;20036;-77
2023/09/20 09:25:17;;;;;;;7.82;4.82;;;;;;;;;;5093710;28;20063;-76
2023/09/20 09:27:43;;;;;;;8.35;5.20;;;;;;;;;;5094963;28;20065;-75
2023/09/20 09:30:12;;;;;;;8.00;5.20;;;;;;;;;;5094198;28;20161;-75
2023/09/20 09:32:39;;;;;;;9.35;5.00;;;;;;;;;;5094735;28;20036;-74
2023/09/20 09:35:06;;;;;;;8.30;4.90;;;;;;;;;;5094401;28;20024;-74
2023/09/20 09:37:36;;;;;;;7.25;5.00;;;;;;;;;;5093969;28;20035;-74
2023/09/20 09:40:05;;;;;;;10.48;5.70;;;;;;;;;;5093888;28;20039;-74
2023/09/20 09:42:31;;;;;;;9.07;5.05;;;;;;;;;;5094164;28;20031;-75
2023/09/20 09:44:58;;;;;;;9.80;5.63;;;;;;;;;;5094476;28;20036;-74
2023/09/20 09:47:25;;;;;;;9.52;5.47;;;;;;;;;;5094003;28;20028;-75
2023/09/20 09:49:54;;;;;;;8.63;4.60;;;;;;;;;;5093510;28;20590;-74
2023/09/20 09:52:25;;;;;;;10.27;4.93;;;;;;;;;;5093396;28;20020;-73
2023/09/20 09:54:52;;;;;;;9.00;3.92;;;;;;;;;;5093939;28;20494;-75
2023/09/20 09:57:18;;;;;;;6.30;4.10;;;;;;;;;;5094012;28;20489;-74
2023/09/20 09:59:46;;;;;;;10.88;4.28;;;;;;;;;;5094121;28;20027;-75
2023/09/20 10:02:22;;;;;;;7.30;4.22;;;;;;;;;;5093577;28;20031;-74
2023/09/20 10:04:59;;;;;;;10.30;4.18;;;;;;;;;;5094677;28;20093;-74
2023/09/20 10:07:31;;;;;;;9.38;3.97;;;;;;;;;;5095656;28;20046;-76
2023/09/20 10:10:08;;;;;;;6.60;3.78;;;;;;;;;;5094022;28;20039;-76
2023/09/20 10:12:36;;;;;;;9.80;4.18;;;;;;;;;;5093827;28;20028;-74
2023/09/20 10:15:06;;;;;;;8.73;4.47;;;;;;;;;;5093802;28;20024;-75
2023/09/20 10:17:32;;;;;;;11.88;4.10;;;;;;;;;;5093894;28;20089;-75
2023/09/20 10:19:58;;;;;;;6.72;4.00;;;;;;;;;;5075417;28;20032;-75
2023/09/20 10:22:26;;;;;;;7.68;3.83;;;;;;;;;;5093019;28;20063;-75
2023/09/20 10:24:54;;;;;;;12.40;4.10;;;;;;;;;;5093577;28;20525;-74
2023/09/20 10:27:22;;;;;;;6.18;3.78;;;;;;;;;;5093415;28;20032;-73
2023/09/20 10:30:10;;;;;;;9.23;4.03;;;;;;;;;;5092912;28;20024;-72
2023/09/20 10:32:55;;;;;;;12.02;4.43;;;;;;;;;;5093319;28;20032;-75
2023/09/20 10:35:33;;;;;;;5.25;3.50;;;;;;;;;;5093379;28;20047;-75
2023/09/20 10:38:08;;;;;;;9.40;4.50;;;;;;;;;;5109077;28;20527;-74
2023/09/20 10:40:55;;;;;;;5.93;4.25;;;;;;;;;;5092784;28;20144;-75
2023/09/20 10:43:41;;;;;;;9.02;4.00;;;;;;;;;;5092399;28;20377;-74
2023/09/20 10:46:09;;;;;;;6.75;3.42;;;;;;;;;;5075397;28;20433;-74
2023/09/20 10:48:41;;;;;;;8.38;4.15;;;;;;;;;;5088901;28;20148;-73
2023/09/20 10:51:07;;;;;;;8.77;4.35;;;;;;;;;;5091320;28;20067;-71
2023/09/20 10:53:42;;;;;;;9.75;4.00;;;;;;;;;;5091443;28;20103;-74
2023/09/20 10:56:32;;;;;;;7.78;4.30;;;;;;;;;;5091435;28;20032;-73
2023/09/20 10:58:59;;;;;;;6.97;4.10;;;;;;;;;;5072238;28;20398;-73
2023/09/20 11:01:25;;;;;;;9.27;4.00;;;;;;;;;;5070414;28;20043;-74
2023/09/20 11:03:53;;;;;;;8.73;4.82;;;;;;;;;;5071982;28;20389;-74
2023/09/20 11:06:19;;;;;;;9.73;4.30;;;;;;;;;;5072137;28;20037;-73
2023/09/20 11:08:45;;;;;;;6.50;4.40;;;;;;;;;;5072128;28;20401;-75
2023/09/20 11:11:18;;;;;;;7.72;4.90;;;;;;;;;;5071178;28;20032;-73
2023/09/20 11:13:46;;;;;;;6.32;4.40;;;;;;;;;;5072248;28;20111;-75
2023/09/20 11:16:13;;;;;;;8.43;3.95;;;;;;;;;;5071439;28;20020;-75
2023/09/20 11:18:42;;;;;;;9.18;4.78;;;;;;;;;;5071359;28;20043;-76
2023/09/20 11:21:08;;;;;;;8.77;4.45;;;;;;;;;;5070987;28;20055;-74
2023/09/20 11:23:34;;;;;;;7.13;4.47;;;;;;;;;;5070604;28;20045;-74
2023/09/20 11:26:04;;;;;;;8.30;5.07;;;;;;;;;;5069601;28;20035;-74
2023/09/20 11:28:34;;;;;;;5.90;4.32;;;;;;;;;;5071845;28;20113;-73
2023/09/20 11:31:00;;;;;;;8.48;4.90;;;;;;;;;;5071316;28;20379;-72
2023/09/20 11:33:30;;;;;;;9.40;4.50;;;;;;;;;;5069536;28;20021;-73
2023/09/20 11:35:56;;;;;;;9.13;4.45;;;;;;;;;;5072024;28;20036;-73
2023/09/20 11:38:22;;;;;;;6.40;4.35;;;;;;;;;;5071864;28;20024;-73
2023/09/20 11:40:51;;;;;;;6.55;4.15;;;;;;;;;;5069375;28;20405;-74
2023/09/20 11:43:22;;;;;;;8.02;4.72;;;;;;;;;;5072107;28;20025;-74
2023/09/20 11:45:53;;;;;;;11.45;5.10;;;;;;;;;;5071899;28;20033;-74
2023/09/20 11:48:22;;;;;;;7.03;4.22;;;;;;;;;;5071947;28;20402;-73
2023/09/20 11:50:48;;;;;;;10.40;5.57;;;;;;;;;;5071951;28;20096;-73
2023/09/20 11:53:18;;;;;;;10.98;5.13;;;;;;;;;;5071653;28;20115;-74
2023/09/20 11:55:45;;;;;;;10.80;5.32;;;;;;;;;;5071782;28;20040;-73
2023/09/20 11:58:11;;;;;;;5.60;4.22;;;;;;;;;;5071773;28;20028;-74
2023/09/20 12:00:39;;;;;;;6.68;4.55;;;;;;;;;;5071084;28;20028;-74
2023/09/20 12:03:05;;;;;;;11.30;5.13;;;;;;;;;;5070159;28;20119;-75
2023/09/20 12:05:33;;;;;;;7.93;4.50;;;;;;;;;;5071725;28;20105;-75
2023/09/20 12:08:00;;;;;;;10.52;5.78;;;;;;;;;;5071672;28;20029;-73
2023/09/20 12:10:27;;;;;;;14.63;4.88;;;;;;;;;;5071496;28;20040;-74
2023/09/20 12:12:53;;;;;;;9.35;5.10;;;;;;;;;;5071015;28;20024;-75
2023/09/20 12:15:23;;;;;;;8.43;4.75;;;;;;;;;;5087217;28;20053;-73
2023/09/20 12:17:51;;;;;;;8.63;4.18;;;;;;;;;;5071949;28;20024;-74
2023/09/20 12:20:24;;;;;;;6.95;4.70;;;;;;;;;;5071379;28;20040;-73
2023/09/20 12:22:53;;;;;;;6.55;3.92;;;;;;;;;;5072288;28;20126;-73
2023/09/20 12:25:19;;;;;;;6.95;4.40;;;;;;;;;;5071804;28;20081;-75
2023/09/20 12:27:48;;;;;;;8.15;4.55;;;;;;;;;;5071513;28;20473;-74
2023/09/20 12:30:14;;;;;;;6.22;4.32;;;;;;;;;;5071887;28;20508;-75
2023/09/20 12:32:41;;;;;;;8.80;4.28;;;;;;;;;;5071810;28;20070;-74
2023/09/20 12:35:09;;;;;;;12.85;4.38;;;;;;;;;;5071562;28;20077;-73
2023/09/20 12:37:36;;;;;;;6.60;4.32;;;;;;;;;;5071156;28;20025;-74
2023/09/20 12:40:12;;;;;;;9.85;5.45;;;;;;;;;;5071381;28;20027;-74
2023/09/20 12:42:38;;;;;;;6.82;3.60;;;;;;;;;;5071182;28;20040;-74
2023/09/20 12:45:07;;;;;;;10.18;3.90;;;;;;;;;;5071367;28;20036;-72
2023/09/20 12:47:34;;;;;;;4.93;4.00;;;;;;;;;;5071382;28;20398;-72
2023/09/20 12:50:00;;;;;;;6.57;3.75;;;;;;;;;;5071050;28;20028;-75
2023/09/20 12:52:27;;;;;;;4.85;3.58;;;;;;;;;;5081389;28;20393;-74
2023/09/20 12:54:52;;;;;;;6.63;3.58;;;;;;;;;;5091301;28;20032;-75
2023/09/20 12:57:20;;;;;;;9.85;4.40;;;;;;;;;;5091303;28;20493;-72
2023/09/20 12:59:46;;;;;;;9.75;3.92;;;;;;;;;;5091228;28;20099;-72
2023/09/20 13:02:12;;;;;;;8.63;4.68;;;;;;;;;;5090666;28;20085;-74
2023/09/20 13:04:37;;;;;;;9.98;4.50;;;;;;;;;;5091779;28;20055;-73
2023/09/20 13:07:03;;;;;;;5.88;4.07;;;;;;;;;;5091039;28;20043;-74
2023/09/20 13:09:29;;;;;;;10.10;4.43;;;;;;;;;;5091499;28;20103;-73
2023/09/20 13:11:55;;;;;;;17.98;5.32;;;;;;;;;;5090894;28;20028;-75
2023/09/20 13:14:21;;;;;;;11.52;4.80;;;;;;;;;;5090994;28;20389;-72
2023/09/20 13:16:49;;;;;;;8.07;4.25;;;;;;;;;;5089064;28;20115;-71
2023/09/20 13:19:16;;;;;;;7.35;4.18;;;;;;;;;;5082372;28;20016;-74
2023/09/20 13:21:42;;;;;;;12.65;4.82;;;;;;;;;;5090821;28;20474;-73
2023/09/20 13:24:10;;;;;;;6.03;4.72;;;;;;;;;;5090668;28;20016;-73
2023/09/20 13:26:38;;;;;;;8.57;4.15;;;;;;;;;;5088107;28;20035;-73
2023/09/20 13:29:04;;;;;;;8.05;3.70;;;;;;;;;;5091494;28;20088;-75
2023/09/20 13:31:31;;;;;;;7.35;3.92;;;;;;;;;;5094173;28;20027;-73
2023/09/20 13:33:58;;;;;;;7.13;4.05;;;;;;;;;;5094928;28;20389;-74
2023/09/20 13:36:25;;;;;;;7.40;3.92;;;;;;;;;;5094800;28;20043;-74
2023/09/20 13:38:50;;;;;;;9.55;4.30;;;;;;;;;;5094692;28;20038;-73
2023/09/20 13:41:17;;;;;;;8.40;4.68;;;;;;;;;;5093093;28;20111;-75
2023/09/20 13:43:44;;;;;;;7.07;5.00;;;;;;;;;;5089180;28;20138;-75
2023/09/20 13:46:14;;;;;;;11.93;4.32;;;;;;;;;;5086381;28;20027;-74
2023/09/20 13:48:40;;;;;;;9.52;4.40;;;;;;;;;;5094703;28;20081;-73
2023/09/20 13:51:16;;;;;;;9.20;4.25;;;;;;;;;;5094779;28;20016;-73
2023/09/20 13:53:43;;;;;;;6.72;4.47;;;;;;;;;;5093319;28;20035;-76
2023/09/20 13:56:09;;;;;;;9.15;4.70;;;;;;;;;;5092260;28;20020;-75
2023/09/20 13:58:35;;;;;;;7.53;3.97;;;;;;;;;;5094215;28;20496;-73
2023/09/20 14:01:05;;;;;;;8.23;3.85;;;;;;;;;;5093715;28;20111;-74
2023/09/20 14:03:36;;;;;;;11.18;4.13;;;;;;;;;;5093740;28;20035;-73
2023/09/20 14:06:03;;;;;;;8.38;4.30;;;;;;;;;;5094182;28;20405;-74
2023/09/20 14:08:30;;;;;;;4.93;3.72;;;;;;;;;;5094252;28;20098;-74
2023/09/20 14:10:56;;;;;;;5.85;4.03;;;;;;;;;;5093778;28;20040;-72
2023/09/20 14:13:24;;;;;;;9.95;4.20;;;;;;;;;;5094223;28;20055;-72
2023/09/20 14:15:56;;;;;;;8.32;4.07;;;;;;;;;;5092656;28;20039;-74
2023/09/20 14:18:22;;;;;;;6.28;4.38;;;;;;;;;;5094143;28;20165;-74
2023/09/20 14:20:51;;;;;;;5.32;4.32;;;;;;;;;;5093650;28;20540;-74
2023/09/20 14:23:18;;;;;;;5.85;3.80;;;;;;;;;;5091120;28;20024;-73
2023/09/20 14:25:49;;;;;;;6.70;4.07;;;;;;;;;;5091801;28;20062;-76
2023/09/20 14:28:18;;;;;;;7.07;4.22;;;;;;;;;;5091249;28;20024;-73
2023/09/20 14:30:44;;;;;;;5.63;4.18;;;;;;;;;;5091717;28;20081;-75
2023/09/20 14:33:11;;;;;;;8.70;4.95;;;;;;;;;;5091701;28;20394;-73
2023/09/20 14:35:38;;;;;;;6.07;4.05;;;;;;;;;;5092088;28;20032;-74
2023/09/20 14:38:04;;;;;;;9.15;4.13;;;;;;;;;;5092133;28;20604;-74
2023/09/20 14:40:33;;;;;;;7.40;4.35;;;;;;;;;;5090106;28;20028;-74
2023/09/20 14:43:00;;;;;;;5.85;4.60;;;;;;;;;;5094486;28;20521;-75
2023/09/20 14:45:29;;;;;;;9.20;4.70;;;;;;;;;;5092834;28;20470;-73
2023/09/20 14:47:59;;;;;;;7.90;4.38;;;;;;;;;;5092459;28;20214;-73
2023/09/20 14:50:28;;;;;;;8.10;4.15;;;;;;;;;;5090350;28;20032;-74
2023/09/20 14:52:56;;;;;;;6.30;4.20;;;;;;;;;;5091838;28;20024;-73
2023/09/20 14:55:22;;;;;;;6.50;4.38;;;;;;;;;;5091219;28;20036;-74
2023/09/20 14:57:52;;;;;;;5.85;4.55;;;;;;;;;;5086437;28;20518;-74
2023/09/20 15:00:24;;;;;;;10.82;4.55;;;;;;;;;;5089806;28;20032;-73
2023/09/20 15:02:52;;;;;;;6.47;4.18;;;;;;;;;;5089644;28;20048;-73
2023/09/20 15:05:19;;;;;;;6.47;3.97;;;;;;;;;;5091219;28;20043;-74
2023/09/20 15:07:53;;;;;;;14.23;4.38;;;;;;;;;;5090205;28;20545;-74
2023/09/20 15:10:22;;;;;;;6.40;4.25;;;;;;;;;;5082682;28;20506;-74
2023/09/20 15:12:49;;;;;;;8.93;4.50;;;;;;;;;;5086503;28;20034;-74
2023/09/20 15:15:21;;;;;;;8.07;4.03;;;;;;;;;;5090603;28;20057;-74
2023/09/20 15:17:47;;;;;;;10.75;4.60;;;;;;;;;;5090969;28;20111;-74